METAR Data
IDs: Format: Raw Decoded Include TAF

Data at: 0255 UTC 15 Aug 2020

METAR for:KMRB (Martinsburg/E West V, WV, US)
Text:KMRB 150230Z 12009G14KT 100V170 10SM FEW029 BKN038 OVC049 23/19 A3000 RMK AO2 T02330189
Temperature: 23.3°C ( 74°F)
Dewpoint: 18.9°C ( 66°F) [RH = 76%]
Pressure (altimeter):30.00 inches Hg (1016.0 mb)
Winds:from the ESE (120 degrees) at 10 MPH (9 knots; 4.6 m/s) gusting to 16 MPH (14 knots; 7.2 m/s)
Visibility:10 or more sm (16+ km)
Ceiling:3800 feet AGL
Clouds: few clouds at 2900 feet AGL, broken clouds at 3800 feet AGL, overcast cloud deck at 4900 feet AGL